Norbank — PGIS — position and weather

sailwx.info

Track history (hours):
 
Tides and Currents Weather Stations Pressure Air Temp Water Temp Dewpoint Dewpoint Depression Visibility Wind Speed Wind Dir Waves Ship Positions

Norbank

Operator: P & O Ferries

Last reported at 2017-Mar-24 17:33 UTC. Time now 2017-Mar-24 17:52 UTC.
Position N 53°27' W 003°01'.

Length 167 m; draft 5.4 m.

Type: Ship (hazmat cat A). MMSI: 246213000.

Date/timePositionNaut miles runAvg speedWind from/ knotsBaromVisibWave heightAir tempDewpointWater temp
2017-Mar-24 17:33N 53°27' W 003°01'0 0.4
2017-Mar-24 16:33N 53°27' W 003°01'5 5.4
2017-Mar-24 15:33N 53°31' W 003°07'1717.2
2017-Mar-24 14:33N 53°31' W 003°36'1818.0
2017-Mar-24 13:33N 53°32' W 004°06'6 0.4
2017-Mar-24 00:30N 53°35' W 003°58'1919.7
2017-Mar-23 23:33N 53°32' W 003°26'1616.2
2017-Mar-23 22:34N 53°27' W 003°01'1 0.5
2017-Mar-23 21:33N 53°27' W 003°01'0 0.0
2017-Mar-23 20:33N 53°27' W 003°01'0 0.0
2017-Mar-23 19:32N 53°27' W 003°01'0 0.0
2017-Mar-23 18:32N 53°27' W 003°01'0 0.0
2017-Mar-23 17:32N 53°27' W 003°01'0 0.4
2017-Mar-23 16:31N 53°27' W 003°01'8 8.1
2017-Mar-23 15:33N 53°31' W 003°12'1818.1
2017-Mar-23 14:33N 53°31' W 003°42'1818.1
2017-Mar-23 13:33N 53°34' W 004°12'15 1.0
2017-Mar-22 23:25N 53°34' W 003°48'1517.5
2017-Mar-22 22:33N 53°32' W 003°22'1413.8
2017-Mar-22 21:33N 53°27' W 003°01'0 0.4
2017-Mar-22 20:33N 53°27' W 003°01'0 0.0
2017-Mar-22 19:33N 53°27' W 003°01'0 0.0
2017-Mar-22 18:33N 53°27' W 003°01'0 0.0
2017-Mar-22 17:33N 53°27' W 003°01'0 0.4
2017-Mar-22 16:25N 53°27' W 003°01'7 8.3
2017-Mar-22 15:33N 53°32' W 003°10'1919.0
2017-Mar-22 14:33N 53°31' W 003°42'4 0.3
2017-Mar-22 00:13N 53°34' W 003°45'1319.4
2017-Mar-21 23:33N 53°33' W 003°24'1514.8
2017-Mar-21 22:33N 53°27' W 003°01'0 0.4
2017-Mar-21 21:33N 53°27' W 003°01'0 0.0
2017-Mar-21 20:30N 53°27' W 003°01'0 0.0
2017-Mar-21 19:32N 53°27' W 003°01'0 0.0
2017-Mar-21 18:29N 53°27' W 003°01'1 0.6
2017-Mar-21 17:33N 53°27' W 003°01'1 0.5
2017-Mar-21 16:33N 53°26' W 003°01'7 7.1
2017-Mar-21 15:33N 53°32' W 003°09'1919.3
2017-Mar-21 14:33N 53°32' W 003°41'2 0.2
2017-Mar-20 23:33N 53°34' W 003°43'1717.4
2017-Mar-20 22:34N 53°31' W 003°14'9 8.2
2017-Mar-20 21:30N 53°27' W 003°01'0 0.4
2017-Mar-20 20:31N 53°27' W 003°01'0 0.0
2017-Mar-20 19:33N 53°27' W 003°01'0 0.0
2017-Mar-20 18:30N 53°27' W 003°01'0 0.0
2017-Mar-20 17:33N 53°27' W 003°01'0 0.0
2017-Mar-20 16:32N 53°27' W 003°01'0 0.0
2017-Mar-20 15:32N 53°27' W 003°01'0 0.0
2017-Mar-20 14:31N 53°27' W 003°01'0 0.0
2017-Mar-20 13:31N 53°27' W 003°01'0 0.0
2017-Mar-20 12:33N 53°27' W 003°01'0 0.0
2017-Mar-20 11:33N 53°27' W 003°01'0 0.0
2017-Mar-20 10:26N 53°27' W 003°01'0 0.0
2017-Mar-20 09:31N 53°27' W 003°01'0 0.0
2017-Mar-20 08:31N 53°27' W 003°01'0 0.0
2017-Mar-20 07:33N 53°27' W 003°01'0 0.0
2017-Mar-20 06:33N 53°27' W 003°01'0 0.5
2017-Mar-20 05:33N 53°27' W 003°01'1111.1
2017-Mar-20 04:33N 53°31' W 003°18'1615.8
2017-Mar-20 03:33N 53°31' W 003°45'1313.4
2017-Mar-20 02:34N 53°34' W 004°07'19 0.7
2017-Mar-18 23:33N 53°33' W 003°34'1414.1
2017-Mar-18 22:33N 53°32' W 003°11'7 7.4
2017-Mar-18 21:33N 53°27' W 003°01'0 0.4
2017-Mar-18 20:31N 53°27' W 003°01'0 0.0
2017-Mar-18 19:31N 53°27' W 003°01'0 0.0
2017-Mar-18 18:33N 53°27' W 003°01'0 0.0
2017-Mar-18 17:33N 53°27' W 003°01'0 0.3
2017-Mar-18 16:33N 53°27' W 003°01'6 6.0
2017-Mar-18 15:33N 53°32' W 003°08'1616.3
2017-Mar-18 14:33N 53°31' W 003°35'1717.1
2017-Mar-18 13:33N 53°33' W 004°04'10 0.8
2017-Mar-18 00:17N 53°34' W 003°47'1216.6
2017-Mar-17 23:34N 53°33' W 003°27'1515.0
2017-Mar-17 22:33N 53°28' W 003°03'1 1.1
2017-Mar-17 21:33N 53°27' W 003°01'0 0.0
2017-Mar-17 20:31N 53°27' W 003°01'0 0.0
2017-Mar-17 19:31N 53°27' W 003°01'0 0.0
2017-Mar-17 18:30N 53°27' W 003°01'0 0.0
2017-Mar-17 17:33N 53°27' W 003°01'0 0.4
2017-Mar-17 16:33N 53°27' W 003°01'7 6.8
2017-Mar-17 15:33N 53°32' W 003°09'1717.5
2017-Mar-17 14:33N 53°31' W 003°39'1817.8
2017-Mar-17 13:32N 53°33' W 004°09'14 1.0
2017-Mar-16 23:19N 53°34' W 003°45'1316.9
2017-Mar-16 22:33N 53°33' W 003°23'1414.3
2017-Mar-16 21:33N 53°27' W 003°01'1 0.6
2017-Mar-16 20:29N 53°27' W 003°01'0 0.0
2017-Mar-16 19:32N 53°27' W 003°01'0 0.0
2017-Mar-16 18:31N 53°27' W 003°01'0 0.0
2017-Mar-16 17:31N 53°27' W 003°01'0 0.5
2017-Mar-16 16:33N 53°27' W 003°01'5 5.5
2017-Mar-16 15:33N 53°31' W 003°07'1717.0
2017-Mar-16 14:34N 53°31' W 003°35'1817.4
2017-Mar-16 13:32N 53°33' W 004°05'10 0.7
2017-Mar-16 00:05N 53°34' W 003°48'917.0
2017-Mar-15 23:33N 53°33' W 003°33'1615.8
2017-Mar-15 22:33N 53°31' W 003°07'5 5.3
2017-Mar-15 21:33N 53°27' W 003°01'0 0.4
2017-Mar-15 20:31N 53°27' W 003°01'0 0.0
2017-Mar-15 19:33N 53°27' W 003°01'0 0.0
2017-Mar-15 18:33N 53°27' W 003°01'0 0.0
2017-Mar-15 17:33N 53°27' W 003°01'0 0.5
2017-Mar-15 16:33N 53°27' W 003°01'7 7.4
2017-Mar-15 15:33N 53°32' W 003°11'1716.9
2017-Mar-15 14:33N 53°31' W 003°39'3 0.2
2017-Mar-14 23:33N 53°34' W 003°42'1515.0
2017-Mar-14 22:33N 53°32' W 003°17'1110.7
2017-Mar-14 21:33N 53°27' W 003°01'0 0.4
2017-Mar-14 20:31N 53°27' W 003°01'0 0.0
2017-Mar-14 19:25N 53°27' W 003°01'0 0.0
2017-Mar-14 18:33N 53°27' W 003°01'  
Track history (hours):
 
Tides and Currents Weather Stations Pressure Air Temp Water Temp Dewpoint Dewpoint Depression Visibility Wind Speed Wind Dir Waves Ship Positions

Norbank

Operator: P & O Ferries

Last reported at 2017-Mar-24 17:33 UTC. Time now 2017-Mar-24 17:52 UTC.
Position N 53°27' W 003°01'.

Length 167 m; draft 5.4 m.

Type: Ship (hazmat cat A). MMSI: 246213000.

Date/timePositionNaut miles runAvg speedWind from/ knotsBaromVisibWave heightAir tempDewpointWater temp
2017-Mar-24 17:33N 53°27' W 003°01'0 0.4
2017-Mar-24 16:33N 53°27' W 003°01'5 5.4
2017-Mar-24 15:33N 53°31' W 003°07'1717.2
2017-Mar-24 14:33N 53°31' W 003°36'1818.0
2017-Mar-24 13:33N 53°32' W 004°06'6 0.4
2017-Mar-24 00:30N 53°35' W 003°58'1919.7
2017-Mar-23 23:33N 53°32' W 003°26'1616.2
2017-Mar-23 22:34N 53°27' W 003°01'1 0.5
2017-Mar-23 21:33N 53°27' W 003°01'0 0.0
2017-Mar-23 20:33N 53°27' W 003°01'0 0.0
2017-Mar-23 19:32N 53°27' W 003°01'0 0.0
2017-Mar-23 18:32N 53°27' W 003°01'0 0.0
2017-Mar-23 17:32N 53°27' W 003°01'0 0.4
2017-Mar-23 16:31N 53°27' W 003°01'8 8.1
2017-Mar-23 15:33N 53°31' W 003°12'1818.1
2017-Mar-23 14:33N 53°31' W 003°42'1818.1
2017-Mar-23 13:33N 53°34' W 004°12'15 1.0
2017-Mar-22 23:25N 53°34' W 003°48'1517.5
2017-Mar-22 22:33N 53°32' W 003°22'1413.8
2017-Mar-22 21:33N 53°27' W 003°01'0 0.4
2017-Mar-22 20:33N 53°27' W 003°01'0 0.0
2017-Mar-22 19:33N 53°27' W 003°01'0 0.0
2017-Mar-22 18:33N 53°27' W 003°01'0 0.0
2017-Mar-22 17:33N 53°27' W 003°01'0 0.4
2017-Mar-22 16:25N 53°27' W 003°01'7 8.3
2017-Mar-22 15:33N 53°32' W 003°10'1919.0
2017-Mar-22 14:33N 53°31' W 003°42'4 0.3
2017-Mar-22 00:13N 53°34' W 003°45'1319.4
2017-Mar-21 23:33N 53°33' W 003°24'1514.8
2017-Mar-21 22:33N 53°27' W 003°01'0 0.4
2017-Mar-21 21:33N 53°27' W 003°01'0 0.0
2017-Mar-21 20:30N 53°27' W 003°01'0 0.0
2017-Mar-21 19:32N 53°27' W 003°01'0 0.0
2017-Mar-21 18:29N 53°27' W 003°01'1 0.6
2017-Mar-21 17:33N 53°27' W 003°01'1 0.5
2017-Mar-21 16:33N 53°26' W 003°01'7 7.1
2017-Mar-21 15:33N 53°32' W 003°09'1919.3
2017-Mar-21 14:33N 53°32' W 003°41'2 0.2
2017-Mar-20 23:33N 53°34' W 003°43'1717.4
2017-Mar-20 22:34N 53°31' W 003°14'9 8.2
2017-Mar-20 21:30N 53°27' W 003°01'0 0.4
2017-Mar-20 20:31N 53°27' W 003°01'0 0.0
2017-Mar-20 19:33N 53°27' W 003°01'0 0.0
2017-Mar-20 18:30N 53°27' W 003°01'0 0.0
2017-Mar-20 17:33N 53°27' W 003°01'0 0.0
2017-Mar-20 16:32N 53°27' W 003°01'0 0.0
2017-Mar-20 15:32N 53°27' W 003°01'0 0.0
2017-Mar-20 14:31N 53°27' W 003°01'0 0.0
2017-Mar-20 13:31N 53°27' W 003°01'0 0.0
2017-Mar-20 12:33N 53°27' W 003°01'0 0.0
2017-Mar-20 11:33N 53°27' W 003°01'0 0.0
2017-Mar-20 10:26N 53°27' W 003°01'0 0.0
2017-Mar-20 09:31N 53°27' W 003°01'0 0.0
2017-Mar-20 08:31N 53°27' W 003°01'0 0.0
2017-Mar-20 07:33N 53°27' W 003°01'0 0.0
2017-Mar-20 06:33N 53°27' W 003°01'0 0.5
2017-Mar-20 05:33N 53°27' W 003°01'1111.1
2017-Mar-20 04:33N 53°31' W 003°18'1615.8
2017-Mar-20 03:33N 53°31' W 003°45'1313.4
2017-Mar-20 02:34N 53°34' W 004°07'19 0.7
2017-Mar-18 23:33N 53°33' W 003°34'1414.1
2017-Mar-18 22:33N 53°32' W 003°11'7 7.4
2017-Mar-18 21:33N 53°27' W 003°01'0 0.4
2017-Mar-18 20:31N 53°27' W 003°01'0 0.0
2017-Mar-18 19:31N 53°27' W 003°01'0 0.0
2017-Mar-18 18:33N 53°27' W 003°01'0 0.0
2017-Mar-18 17:33N 53°27' W 003°01'0 0.3
2017-Mar-18 16:33N 53°27' W 003°01'6 6.0
2017-Mar-18 15:33N 53°32' W 003°08'1616.3
2017-Mar-18 14:33N 53°31' W 003°35'1717.1
2017-Mar-18 13:33N 53°33' W 004°04'10 0.8
2017-Mar-18 00:17N 53°34' W 003°47'1216.6
2017-Mar-17 23:34N 53°33' W 003°27'1515.0
2017-Mar-17 22:33N 53°28' W 003°03'1 1.1
2017-Mar-17 21:33N 53°27' W 003°01'0 0.0
2017-Mar-17 20:31N 53°27' W 003°01'0 0.0
2017-Mar-17 19:31N 53°27' W 003°01'0 0.0
2017-Mar-17 18:30N 53°27' W 003°01'0 0.0
2017-Mar-17 17:33N 53°27' W 003°01'0 0.4
2017-Mar-17 16:33N 53°27' W 003°01'7 6.8
2017-Mar-17 15:33N 53°32' W 003°09'1717.5
2017-Mar-17 14:33N 53°31' W 003°39'1817.8
2017-Mar-17 13:32N 53°33' W 004°09'14 1.0
2017-Mar-16 23:19N 53°34' W 003°45'1316.9
2017-Mar-16 22:33N 53°33' W 003°23'1414.3
2017-Mar-16 21:33N 53°27' W 003°01'1 0.6
2017-Mar-16 20:29N 53°27' W 003°01'0 0.0
2017-Mar-16 19:32N 53°27' W 003°01'0 0.0
2017-Mar-16 18:31N 53°27' W 003°01'0 0.0
2017-Mar-16 17:31N 53°27' W 003°01'0 0.5
2017-Mar-16 16:33N 53°27' W 003°01'5 5.5
2017-Mar-16 15:33N 53°31' W 003°07'1717.0
2017-Mar-16 14:34N 53°31' W 003°35'1817.4
2017-Mar-16 13:32N 53°33' W 004°05'10 0.7
2017-Mar-16 00:05N 53°34' W 003°48'917.0
2017-Mar-15 23:33N 53°33' W 003°33'1615.8
2017-Mar-15 22:33N 53°31' W 003°07'5 5.3
2017-Mar-15 21:33N 53°27' W 003°01'0 0.4
2017-Mar-15 20:31N 53°27' W 003°01'0 0.0
2017-Mar-15 19:33N 53°27' W 003°01'0 0.0
2017-Mar-15 18:33N 53°27' W 003°01'0 0.0
2017-Mar-15 17:33N 53°27' W 003°01'0 0.5
2017-Mar-15 16:33N 53°27' W 003°01'7 7.4
2017-Mar-15 15:33N 53°32' W 003°11'1716.9
2017-Mar-15 14:33N 53°31' W 003°39'3 0.2
2017-Mar-14 23:33N 53°34' W 003°42'1515.0
2017-Mar-14 22:33N 53°32' W 003°17'1110.7
2017-Mar-14 21:33N 53°27' W 003°01'0 0.4
2017-Mar-14 20:31N 53°27' W 003°01'0 0.0
2017-Mar-14 19:25N 53°27' W 003°01'0 0.0
2017-Mar-14 18:33N 53°27' W 003°01'  

Dump ship's entire track history